sensor_id;sensor_type;location;lat;lon;timestamp;P1;durP1;ratioP1;P2;durP2;ratioP2
13897;SDS011;7019;50.766;4.474;2023-01-30T00:01:12;36.17;;;22.03;;
13897;SDS011;7019;50.766;4.474;2023-01-30T00:03:41;41.40;;;23.03;;
13897;SDS011;7019;50.766;4.474;2023-01-30T00:06:09;37.37;;;21.60;;
13897;SDS011;7019;50.766;4.474;2023-01-30T00:08:37;34.67;;;20.60;;
13897;SDS011;7019;50.766;4.474;2023-01-30T00:11:06;37.77;;;20.70;;
13897;SDS011;7019;50.766;4.474;2023-01-30T00:13:35;34.53;;;21.10;;
13897;SDS011;7019;50.766;4.474;2023-01-30T00:16:02;38.93;;;21.10;;
13897;SDS011;7019;50.766;4.474;2023-01-30T00:18:30;40.73;;;20.93;;
13897;SDS011;7019;50.766;4.474;2023-01-30T00:20:57;32.90;;;20.37;;
13897;SDS011;7019;50.766;4.474;2023-01-30T00:23:26;31.30;;;19.47;;
13897;SDS011;7019;50.766;4.474;2023-01-30T00:25:55;35.80;;;21.50;;
13897;SDS011;7019;50.766;4.474;2023-01-30T00:28:23;29.57;;;19.27;;
13897;SDS011;7019;50.766;4.474;2023-01-30T00:30:51;30.23;;;19.07;;
13897;SDS011;7019;50.766;4.474;2023-01-30T00:33:20;34.20;;;20.13;;
13897;SDS011;7019;50.766;4.474;2023-01-30T00:35:48;34.03;;;19.53;;
13897;SDS011;7019;50.766;4.474;2023-01-30T00:38:16;38.47;;;21.67;;
13897;SDS011;7019;50.766;4.474;2023-01-30T00:40:44;40.37;;;20.33;;
13897;SDS011;7019;50.766;4.474;2023-01-30T00:43:12;33.17;;;21.80;;
13897;SDS011;7019;50.766;4.474;2023-01-30T00:45:59;32.50;;;20.33;;
13897;SDS011;7019;50.766;4.474;2023-01-30T00:48:45;30.40;;;19.20;;
13897;SDS011;7019;50.766;4.474;2023-01-30T00:51:13;28.60;;;18.27;;
13897;SDS011;7019;50.766;4.474;2023-01-30T00:53:40;34.50;;;20.80;;
13897;SDS011;7019;50.766;4.474;2023-01-30T00:56:07;31.30;;;19.77;;
13897;SDS011;7019;50.766;4.474;2023-01-30T00:58:34;31.13;;;19.43;;
13897;SDS011;7019;50.766;4.474;2023-01-30T01:01:03;35.90;;;19.87;;
13897;SDS011;7019;50.766;4.474;2023-01-30T01:03:30;33.00;;;21.20;;
13897;SDS011;7019;50.766;4.474;2023-01-30T01:05:57;32.40;;;19.83;;
13897;SDS011;7019;50.766;4.474;2023-01-30T01:08:24;30.30;;;19.13;;
13897;SDS011;7019;50.766;4.474;2023-01-30T01:10:51;36.27;;;20.77;;
13897;SDS011;7019;50.766;4.474;2023-01-30T01:13:18;31.47;;;20.13;;
13897;SDS011;7019;50.766;4.474;2023-01-30T01:15:45;30.57;;;19.10;;
13897;SDS011;7019;50.766;4.474;2023-01-30T01:18:14;29.77;;;18.03;;
13897;SDS011;7019;50.766;4.474;2023-01-30T01:20:41;27.27;;;18.87;;
13897;SDS011;7019;50.766;4.474;2023-01-30T01:23:08;32.40;;;19.57;;
13897;SDS011;7019;50.766;4.474;2023-01-30T01:25:36;30.10;;;19.13;;
13897;SDS011;7019;50.766;4.474;2023-01-30T01:28:03;28.83;;;18.07;;
13897;SDS011;7019;50.766;4.474;2023-01-30T01:30:30;29.20;;;19.10;;
13897;SDS011;7019;50.766;4.474;2023-01-30T01:32:57;28.73;;;19.57;;
13897;SDS011;7019;50.766;4.474;2023-01-30T01:35:26;29.63;;;19.40;;
13897;SDS011;7019;50.766;4.474;2023-01-30T01:37:53;27.73;;;19.13;;
13897;SDS011;7019;50.766;4.474;2023-01-30T01:40:20;24.93;;;18.40;;
13897;SDS011;7019;50.766;4.474;2023-01-30T01:45:52;28.37;;;19.40;;
13897;SDS011;7019;50.766;4.474;2023-01-30T01:48:24;27.53;;;18.63;;
13897;SDS011;7019;50.766;4.474;2023-01-30T01:50:56;25.10;;;18.10;;
13897;SDS011;7019;50.766;4.474;2023-01-30T01:53:26;27.40;;;17.47;;
13897;SDS011;7019;50.766;4.474;2023-01-30T01:55:58;26.67;;;16.10;;
13897;SDS011;7019;50.766;4.474;2023-01-30T01:58:28;28.50;;;18.27;;
13897;SDS011;7019;50.766;4.474;2023-01-30T02:01:00;30.77;;;18.33;;
13897;SDS011;7019;50.766;4.474;2023-01-30T02:03:29;34.13;;;18.63;;
13897;SDS011;7019;50.766;4.474;2023-01-30T02:06:01;27.77;;;17.40;;
13897;SDS011;7019;50.766;4.474;2023-01-30T02:08:30;24.97;;;18.13;;
13897;SDS011;7019;50.766;4.474;2023-01-30T02:11:02;30.70;;;18.43;;
13897;SDS011;7019;50.766;4.474;2023-01-30T02:13:33;28.30;;;17.57;;
13897;SDS011;7019;50.766;4.474;2023-01-30T02:16:01;26.37;;;18.00;;
13897;SDS011;7019;50.766;4.474;2023-01-30T02:18:29;26.50;;;16.03;;
13897;SDS011;7019;50.766;4.474;2023-01-30T02:24:18;25.53;;;17.43;;
13897;SDS011;7019;50.766;4.474;2023-01-30T02:27:03;24.13;;;16.83;;
13897;SDS011;7019;50.766;4.474;2023-01-30T02:32:50;27.90;;;16.43;;
13897;SDS011;7019;50.766;4.474;2023-01-30T02:35:26;29.03;;;16.70;;
13897;SDS011;7019;50.766;4.474;2023-01-30T02:38:03;25.93;;;17.10;;
13897;SDS011;7019;50.766;4.474;2023-01-30T02:40:39;24.37;;;16.67;;
13897;SDS011;7019;50.766;4.474;2023-01-30T02:43:15;33.93;;;17.50;;
13897;SDS011;7019;50.766;4.474;2023-01-30T02:45:51;25.93;;;16.87;;
13897;SDS011;7019;50.766;4.474;2023-01-30T02:48:24;31.77;;;18.53;;
13897;SDS011;7019;50.766;4.474;2023-01-30T02:50:55;29.97;;;18.20;;
13897;SDS011;7019;50.766;4.474;2023-01-30T02:53:25;25.90;;;17.53;;
13897;SDS011;7019;50.766;4.474;2023-01-30T02:55:55;27.20;;;17.23;;
13897;SDS011;7019;50.766;4.474;2023-01-30T02:58:22;31.03;;;17.83;;
13897;SDS011;7019;50.766;4.474;2023-01-30T03:10:05;26.40;;;16.83;;
13897;SDS011;7019;50.766;4.474;2023-01-30T03:12:38;30.47;;;17.07;;
13897;SDS011;7019;50.766;4.474;2023-01-30T03:15:11;25.37;;;16.33;;
13897;SDS011;7019;50.766;4.474;2023-01-30T03:17:44;25.63;;;15.80;;
13897;SDS011;7019;50.766;4.474;2023-01-30T03:20:13;27.60;;;16.20;;
13897;SDS011;7019;50.766;4.474;2023-01-30T03:22:42;25.70;;;15.80;;
13897;SDS011;7019;50.766;4.474;2023-01-30T03:25:10;25.50;;;15.23;;
13897;SDS011;7019;50.766;4.474;2023-01-30T03:27:40;26.23;;;14.57;;
13897;SDS011;7019;50.766;4.474;2023-01-30T03:30:09;27.53;;;14.10;;
13897;SDS011;7019;50.766;4.474;2023-01-30T03:32:37;21.80;;;14.33;;
13897;SDS011;7019;50.766;4.474;2023-01-30T03:35:04;21.83;;;14.00;;
13897;SDS011;7019;50.766;4.474;2023-01-30T03:37:32;25.17;;;14.43;;
13897;SDS011;7019;50.766;4.474;2023-01-30T03:40:00;24.53;;;13.97;;
13897;SDS011;7019;50.766;4.474;2023-01-30T03:42:27;20.70;;;13.30;;
13897;SDS011;7019;50.766;4.474;2023-01-30T03:44:55;22.87;;;13.43;;
13897;SDS011;7019;50.766;4.474;2023-01-30T03:47:22;24.30;;;13.40;;
13897;SDS011;7019;50.766;4.474;2023-01-30T03:49:49;25.27;;;14.10;;
13897;SDS011;7019;50.766;4.474;2023-01-30T03:52:16;22.20;;;13.47;;
13897;SDS011;7019;50.766;4.474;2023-01-30T03:54:44;20.57;;;12.77;;
13897;SDS011;7019;50.766;4.474;2023-01-30T03:57:12;21.30;;;13.53;;
13897;SDS011;7019;50.766;4.474;2023-01-30T03:59:39;27.50;;;14.97;;
13897;SDS011;7019;50.766;4.474;2023-01-30T04:02:08;26.43;;;12.70;;
13897;SDS011;7019;50.766;4.474;2023-01-30T04:04:35;19.23;;;12.60;;
13897;SDS011;7019;50.766;4.474;2023-01-30T04:07:02;19.10;;;12.60;;
13897;SDS011;7019;50.766;4.474;2023-01-30T04:09:29;28.33;;;13.47;;
13897;SDS011;7019;50.766;4.474;2023-01-30T04:11:56;17.53;;;11.43;;
13897;SDS011;7019;50.766;4.474;2023-01-30T04:14:25;21.37;;;12.93;;
13897;SDS011;7019;50.766;4.474;2023-01-30T04:16:52;28.27;;;12.43;;
13897;SDS011;7019;50.766;4.474;2023-01-30T04:19:19;16.70;;;12.40;;
13897;SDS011;7019;50.766;4.474;2023-01-30T04:21:46;18.93;;;12.47;;
13897;SDS011;7019;50.766;4.474;2023-01-30T04:24:13;24.80;;;14.20;;
13897;SDS011;7019;50.766;4.474;2023-01-30T04:26:40;22.93;;;12.87;;
13897;SDS011;7019;50.766;4.474;2023-01-30T04:29:07;19.33;;;12.93;;
13897;SDS011;7019;50.766;4.474;2023-01-30T04:31:36;24.80;;;14.03;;
13897;SDS011;7019;50.766;4.474;2023-01-30T04:34:03;24.70;;;13.70;;
13897;SDS011;7019;50.766;4.474;2023-01-30T04:36:30;24.27;;;13.20;;
13897;SDS011;7019;50.766;4.474;2023-01-30T04:38:57;24.50;;;13.83;;
13897;SDS011;7019;50.766;4.474;2023-01-30T04:41:24;21.30;;;13.43;;
13897;SDS011;7019;50.766;4.474;2023-01-30T04:43:51;25.57;;;14.90;;
13897;SDS011;7019;50.766;4.474;2023-01-30T04:46:18;19.23;;;13.47;;
13897;SDS011;7019;50.766;4.474;2023-01-30T04:48:47;21.40;;;13.40;;
13897;SDS011;7019;50.766;4.474;2023-01-30T04:51:14;20.40;;;13.57;;
13897;SDS011;7019;50.766;4.474;2023-01-30T04:53:41;21.13;;;12.70;;
13897;SDS011;7019;50.766;4.474;2023-01-30T04:56:08;21.77;;;13.23;;
13897;SDS011;7019;50.766;4.474;2023-01-30T04:58:35;18.90;;;12.83;;
13897;SDS011;7019;50.766;4.474;2023-01-30T05:01:12;18.67;;;12.33;;
13897;SDS011;7019;50.766;4.474;2023-01-30T05:03:40;19.13;;;12.00;;
13897;SDS011;7019;50.766;4.474;2023-01-30T05:06:08;16.70;;;12.27;;
13897;SDS011;7019;50.766;4.474;2023-01-30T05:08:35;19.33;;;11.60;;
13897;SDS011;7019;50.766;4.474;2023-01-30T05:11:03;19.70;;;11.93;;
13897;SDS011;7019;50.766;4.474;2023-01-30T05:13:30;17.73;;;11.23;;
13897;SDS011;7019;50.766;4.474;2023-01-30T05:15:57;21.00;;;13.57;;
13897;SDS011;7019;50.766;4.474;2023-01-30T05:18:24;20.70;;;12.67;;
13897;SDS011;7019;50.766;4.474;2023-01-30T05:20:51;25.97;;;13.63;;
13897;SDS011;7019;50.766;4.474;2023-01-30T05:23:20;24.43;;;14.77;;
13897;SDS011;7019;50.766;4.474;2023-01-30T05:25:47;22.27;;;13.07;;
13897;SDS011;7019;50.766;4.474;2023-01-30T05:28:14;26.70;;;13.60;;
13897;SDS011;7019;50.766;4.474;2023-01-30T05:30:41;22.63;;;13.10;;
13897;SDS011;7019;50.766;4.474;2023-01-30T05:33:08;21.43;;;13.57;;
13897;SDS011;7019;50.766;4.474;2023-01-30T05:35:35;21.13;;;13.90;;
13897;SDS011;7019;50.766;4.474;2023-01-30T05:38:02;23.63;;;14.13;;
13897;SDS011;7019;50.766;4.474;2023-01-30T05:40:30;21.87;;;13.50;;
13897;SDS011;7019;50.766;4.474;2023-01-30T05:42:57;22.57;;;12.90;;
13897;SDS011;7019;50.766;4.474;2023-01-30T05:45:24;25.73;;;13.97;;
13897;SDS011;7019;50.766;4.474;2023-01-30T05:47:51;23.03;;;13.67;;
13897;SDS011;7019;50.766;4.474;2023-01-30T05:50:18;28.60;;;15.03;;
13897;SDS011;7019;50.766;4.474;2023-01-30T05:52:45;28.30;;;13.77;;
13897;SDS011;7019;50.766;4.474;2023-01-30T05:55:12;24.10;;;12.67;;
13897;SDS011;7019;50.766;4.474;2023-01-30T05:57:41;23.70;;;14.63;;
13897;SDS011;7019;50.766;4.474;2023-01-30T06:00:09;27.90;;;13.63;;
13897;SDS011;7019;50.766;4.474;2023-01-30T06:02:36;29.13;;;14.93;;
13897;SDS011;7019;50.766;4.474;2023-01-30T06:05:04;20.40;;;13.07;;
13897;SDS011;7019;50.766;4.474;2023-01-30T06:07:31;28.67;;;14.13;;
13897;SDS011;7019;50.766;4.474;2023-01-30T06:09:58;25.77;;;14.40;;
13897;SDS011;7019;50.766;4.474;2023-01-30T06:12:26;22.97;;;12.57;;
13897;SDS011;7019;50.766;4.474;2023-01-30T06:14:54;28.33;;;14.23;;
13897;SDS011;7019;50.766;4.474;2023-01-30T06:17:21;25.23;;;13.57;;
13897;SDS011;7019;50.766;4.474;2023-01-30T06:19:48;20.60;;;12.17;;
13897;SDS011;7019;50.766;4.474;2023-01-30T06:22:15;24.13;;;13.60;;
13897;SDS011;7019;50.766;4.474;2023-01-30T06:24:42;17.73;;;13.07;;
13897;SDS011;7019;50.766;4.474;2023-01-30T06:27:10;22.03;;;12.33;;
13897;SDS011;7019;50.766;4.474;2023-01-30T06:29:38;19.90;;;13.30;;
13897;SDS011;7019;50.766;4.474;2023-01-30T06:32:06;20.03;;;13.23;;
13897;SDS011;7019;50.766;4.474;2023-01-30T06:34:34;22.67;;;14.33;;
13897;SDS011;7019;50.766;4.474;2023-01-30T06:37:02;21.43;;;14.47;;
13897;SDS011;7019;50.766;4.474;2023-01-30T06:39:29;28.80;;;14.53;;
13897;SDS011;7019;50.766;4.474;2023-01-30T06:41:56;21.30;;;13.63;;
13897;SDS011;7019;50.766;4.474;2023-01-30T06:44:23;21.80;;;14.17;;
13897;SDS011;7019;50.766;4.474;2023-01-30T06:46:51;29.97;;;15.10;;
13897;SDS011;7019;50.766;4.474;2023-01-30T06:49:19;28.33;;;12.47;;
13897;SDS011;7019;50.766;4.474;2023-01-30T06:51:46;22.67;;;13.93;;
13897;SDS011;7019;50.766;4.474;2023-01-30T06:54:14;17.77;;;13.77;;
13897;SDS011;7019;50.766;4.474;2023-01-30T06:56:41;24.10;;;14.40;;
13897;SDS011;7019;50.766;4.474;2023-01-30T06:59:08;23.40;;;13.43;;
13897;SDS011;7019;50.766;4.474;2023-01-30T07:01:35;24.13;;;12.53;;
13897;SDS011;7019;50.766;4.474;2023-01-30T07:04:02;23.03;;;13.00;;
13897;SDS011;7019;50.766;4.474;2023-01-30T07:06:31;36.10;;;13.63;;
13897;SDS011;7019;50.766;4.474;2023-01-30T07:08:58;27.47;;;12.93;;
13897;SDS011;7019;50.766;4.474;2023-01-30T07:11:25;22.50;;;12.80;;
13897;SDS011;7019;50.766;4.474;2023-01-30T07:13:53;25.77;;;13.50;;
13897;SDS011;7019;50.766;4.474;2023-01-30T07:16:20;21.47;;;12.70;;
13897;SDS011;7019;50.766;4.474;2023-01-30T07:18:52;19.83;;;12.37;;
13897;SDS011;7019;50.766;4.474;2023-01-30T07:21:21;20.40;;;12.17;;
13897;SDS011;7019;50.766;4.474;2023-01-30T07:23:50;19.93;;;11.73;;
13897;SDS011;7019;50.766;4.474;2023-01-30T07:26:17;22.90;;;12.27;;
13897;SDS011;7019;50.766;4.474;2023-01-30T07:28:44;16.47;;;11.80;;
13897;SDS011;7019;50.766;4.474;2023-01-30T07:31:11;21.97;;;11.40;;
13897;SDS011;7019;50.766;4.474;2023-01-30T07:33:39;19.30;;;11.57;;
13897;SDS011;7019;50.766;4.474;2023-01-30T07:36:06;27.93;;;12.80;;
13897;SDS011;7019;50.766;4.474;2023-01-30T07:38:34;22.07;;;11.80;;
13897;SDS011;7019;50.766;4.474;2023-01-30T07:41:02;21.77;;;12.03;;
13897;SDS011;7019;50.766;4.474;2023-01-30T07:43:29;28.30;;;12.70;;
13897;SDS011;7019;50.766;4.474;2023-01-30T07:45:56;25.93;;;11.30;;
13897;SDS011;7019;50.766;4.474;2023-01-30T07:48:25;16.03;;;11.17;;
13897;SDS011;7019;50.766;4.474;2023-01-30T07:50:54;23.13;;;12.23;;
13897;SDS011;7019;50.766;4.474;2023-01-30T07:53:21;47.90;;;14.30;;
13897;SDS011;7019;50.766;4.474;2023-01-30T07:55:49;21.00;;;10.47;;
13897;SDS011;7019;50.766;4.474;2023-01-30T07:58:18;20.40;;;10.30;;
13897;SDS011;7019;50.766;4.474;2023-01-30T08:00:45;19.67;;;10.07;;
13897;SDS011;7019;50.766;4.474;2023-01-30T08:03:12;18.83;;;9.93;;
13897;SDS011;7019;50.766;4.474;2023-01-30T08:05:41;22.50;;;10.60;;
13897;SDS011;7019;50.766;4.474;2023-01-30T08:08:10;19.80;;;10.30;;
13897;SDS011;7019;50.766;4.474;2023-01-30T08:10:37;20.97;;;9.10;;
13897;SDS011;7019;50.766;4.474;2023-01-30T08:13:05;20.53;;;9.97;;
13897;SDS011;7019;50.766;4.474;2023-01-30T08:15:33;14.67;;;9.60;;
13897;SDS011;7019;50.766;4.474;2023-01-30T08:18:00;22.73;;;10.13;;
13897;SDS011;7019;50.766;4.474;2023-01-30T08:20:27;21.87;;;10.13;;
13897;SDS011;7019;50.766;4.474;2023-01-30T08:22:54;18.17;;;9.50;;
13897;SDS011;7019;50.766;4.474;2023-01-30T08:25:23;22.40;;;10.70;;
13897;SDS011;7019;50.766;4.474;2023-01-30T08:27:50;20.63;;;10.50;;
13897;SDS011;7019;50.766;4.474;2023-01-30T08:30:18;20.80;;;10.27;;
13897;SDS011;7019;50.766;4.474;2023-01-30T08:32:47;19.80;;;9.10;;
13897;SDS011;7019;50.766;4.474;2023-01-30T08:35:15;19.60;;;9.67;;
13897;SDS011;7019;50.766;4.474;2023-01-30T08:37:42;17.93;;;9.00;;
13897;SDS011;7019;50.766;4.474;2023-01-30T08:40:10;19.20;;;8.70;;
13897;SDS011;7019;50.766;4.474;2023-01-30T08:42:38;22.07;;;6.83;;
13897;SDS011;7019;50.766;4.474;2023-01-30T08:45:05;12.10;;;6.10;;
13897;SDS011;7019;50.766;4.474;2023-01-30T08:47:33;19.40;;;6.80;;
13897;SDS011;7019;50.766;4.474;2023-01-30T08:50:02;17.90;;;6.07;;
13897;SDS011;7019;50.766;4.474;2023-01-30T08:52:30;16.43;;;5.00;;
13897;SDS011;7019;50.766;4.474;2023-01-30T08:54:57;12.13;;;4.83;;
13897;SDS011;7019;50.766;4.474;2023-01-30T08:57:25;20.13;;;5.20;;
13897;SDS011;7019;50.766;4.474;2023-01-30T08:59:52;15.70;;;4.20;;
13897;SDS011;7019;50.766;4.474;2023-01-30T09:02:19;9.37;;;3.43;;
13897;SDS011;7019;50.766;4.474;2023-01-30T09:04:46;14.83;;;4.03;;
13897;SDS011;7019;50.766;4.474;2023-01-30T09:07:14;10.10;;;3.63;;
13897;SDS011;7019;50.766;4.474;2023-01-30T09:09:42;14.40;;;3.67;;
13897;SDS011;7019;50.766;4.474;2023-01-30T09:12:09;13.60;;;3.60;;
13897;SDS011;7019;50.766;4.474;2023-01-30T09:14:36;10.27;;;3.17;;
13897;SDS011;7019;50.766;4.474;2023-01-30T09:17:03;11.67;;;3.20;;
13897;SDS011;7019;50.766;4.474;2023-01-30T09:19:30;10.17;;;3.20;;
13897;SDS011;7019;50.766;4.474;2023-01-30T09:22:00;10.73;;;3.07;;
13897;SDS011;7019;50.766;4.474;2023-01-30T09:24:28;12.83;;;3.37;;
13897;SDS011;7019;50.766;4.474;2023-01-30T09:26:55;12.83;;;2.87;;
13897;SDS011;7019;50.766;4.474;2023-01-30T09:29:23;10.10;;;3.30;;
13897;SDS011;7019;50.766;4.474;2023-01-30T09:31:50;14.03;;;3.53;;
13897;SDS011;7019;50.766;4.474;2023-01-30T09:34:18;27.53;;;4.20;;
13897;SDS011;7019;50.766;4.474;2023-01-30T09:36:45;11.03;;;2.93;;
13897;SDS011;7019;50.766;4.474;2023-01-30T09:39:12;11.93;;;2.70;;
13897;SDS011;7019;50.766;4.474;2023-01-30T09:44:56;7.73;;;2.80;;
13897;SDS011;7019;50.766;4.474;2023-01-30T09:47:43;14.07;;;3.90;;
13897;SDS011;7019;50.766;4.474;2023-01-30T09:50:23;9.90;;;2.63;;
13897;SDS011;7019;50.766;4.474;2023-01-30T09:53:02;11.13;;;2.37;;
13897;SDS011;7019;50.766;4.474;2023-01-30T09:55:36;14.80;;;3.23;;
13897;SDS011;7019;50.766;4.474;2023-01-30T09:58:07;12.47;;;2.87;;
13897;SDS011;7019;50.766;4.474;2023-01-30T10:00:43;13.80;;;3.50;;
13897;SDS011;7019;50.766;4.474;2023-01-30T10:03:13;10.50;;;2.30;;
13897;SDS011;7019;50.766;4.474;2023-01-30T10:05:43;15.10;;;2.83;;
13897;SDS011;7019;50.766;4.474;2023-01-30T10:11:04;13.73;;;2.87;;
13897;SDS011;7019;50.766;4.474;2023-01-30T10:13:49;9.97;;;2.50;;
13897;SDS011;7019;50.766;4.474;2023-01-30T10:16:27;14.17;;;2.33;;
13897;SDS011;7019;50.766;4.474;2023-01-30T10:19:09;10.60;;;2.77;;
13897;SDS011;7019;50.766;4.474;2023-01-30T10:21:51;12.30;;;2.90;;
13897;SDS011;7019;50.766;4.474;2023-01-30T10:24:32;12.33;;;2.90;;
13897;SDS011;7019;50.766;4.474;2023-01-30T10:27:07;12.33;;;2.57;;
13897;SDS011;7019;50.766;4.474;2023-01-30T10:29:37;11.17;;;2.37;;
13897;SDS011;7019;50.766;4.474;2023-01-30T10:32:09;13.00;;;2.67;;
13897;SDS011;7019;50.766;4.474;2023-01-30T10:34:40;7.47;;;2.00;;
13897;SDS011;7019;50.766;4.474;2023-01-30T10:37:12;12.70;;;2.03;;
13897;SDS011;7019;50.766;4.474;2023-01-30T10:39:45;9.17;;;2.57;;
13897;SDS011;7019;50.766;4.474;2023-01-30T10:42:19;12.97;;;2.60;;
13897;SDS011;7019;50.766;4.474;2023-01-30T10:44:52;9.73;;;2.63;;
13897;SDS011;7019;50.766;4.474;2023-01-30T10:47:33;12.63;;;2.20;;
13897;SDS011;7019;50.766;4.474;2023-01-30T10:50:14;15.10;;;2.50;;
13897;SDS011;7019;50.766;4.474;2023-01-30T10:52:44;10.03;;;2.20;;
13897;SDS011;7019;50.766;4.474;2023-01-30T10:55:20;10.03;;;3.10;;
13897;SDS011;7019;50.766;4.474;2023-01-30T10:57:56;14.10;;;2.50;;
13897;SDS011;7019;50.766;4.474;2023-01-30T11:00:32;17.13;;;3.37;;
13897;SDS011;7019;50.766;4.474;2023-01-30T11:03:09;11.10;;;2.40;;
13897;SDS011;7019;50.766;4.474;2023-01-30T11:05:46;10.43;;;2.33;;
13897;SDS011;7019;50.766;4.474;2023-01-30T11:08:19;9.30;;;2.80;;
13897;SDS011;7019;50.766;4.474;2023-01-30T11:10:48;13.10;;;2.13;;
13897;SDS011;7019;50.766;4.474;2023-01-30T11:13:17;12.90;;;3.07;;
13897;SDS011;7019;50.766;4.474;2023-01-30T11:15:46;12.27;;;2.80;;
13897;SDS011;7019;50.766;4.474;2023-01-30T11:18:17;9.30;;;2.07;;
13897;SDS011;7019;50.766;4.474;2023-01-30T11:20:50;11.27;;;2.47;;
13897;SDS011;7019;50.766;4.474;2023-01-30T11:23:30;16.20;;;2.90;;
13897;SDS011;7019;50.766;4.474;2023-01-30T11:25:59;9.87;;;2.37;;
13897;SDS011;7019;50.766;4.474;2023-01-30T11:28:28;13.60;;;2.90;;
13897;SDS011;7019;50.766;4.474;2023-01-30T11:31:01;13.60;;;2.40;;
13897;SDS011;7019;50.766;4.474;2023-01-30T11:33:32;12.43;;;2.77;;
13897;SDS011;7019;50.766;4.474;2023-01-30T11:36:00;7.67;;;1.83;;
13897;SDS011;7019;50.766;4.474;2023-01-30T11:38:30;17.30;;;2.73;;
13897;SDS011;7019;50.766;4.474;2023-01-30T11:41:03;9.07;;;2.30;;
13897;SDS011;7019;50.766;4.474;2023-01-30T11:43:39;10.47;;;2.10;;
13897;SDS011;7019;50.766;4.474;2023-01-30T11:46:06;9.37;;;1.83;;
13897;SDS011;7019;50.766;4.474;2023-01-30T11:48:40;9.47;;;3.00;;
13897;SDS011;7019;50.766;4.474;2023-01-30T11:51:11;10.27;;;3.00;;
13897;SDS011;7019;50.766;4.474;2023-01-30T11:53:39;11.80;;;2.73;;
13897;SDS011;7019;50.766;4.474;2023-01-30T11:56:13;14.20;;;2.83;;
13897;SDS011;7019;50.766;4.474;2023-01-30T11:58:42;12.63;;;2.40;;
13897;SDS011;7019;50.766;4.474;2023-01-30T12:01:24;9.80;;;2.20;;
13897;SDS011;7019;50.766;4.474;2023-01-30T12:03:53;16.03;;;2.40;;
13897;SDS011;7019;50.766;4.474;2023-01-30T12:06:23;9.20;;;2.30;;
13897;SDS011;7019;50.766;4.474;2023-01-30T12:08:55;9.00;;;2.53;;
13897;SDS011;7019;50.766;4.474;2023-01-30T12:11:24;14.77;;;3.10;;
13897;SDS011;7019;50.766;4.474;2023-01-30T12:13:53;21.97;;;4.03;;
13897;SDS011;7019;50.766;4.474;2023-01-30T12:16:25;29.37;;;3.77;;
13897;SDS011;7019;50.766;4.474;2023-01-30T12:19:11;10.10;;;2.20;;
13897;SDS011;7019;50.766;4.474;2023-01-30T12:21:51;12.70;;;2.60;;
13897;SDS011;7019;50.766;4.474;2023-01-30T12:24:26;11.73;;;3.93;;
13897;SDS011;7019;50.766;4.474;2023-01-30T12:26:59;11.40;;;2.57;;
13897;SDS011;7019;50.766;4.474;2023-01-30T12:29:30;10.50;;;2.43;;
13897;SDS011;7019;50.766;4.474;2023-01-30T12:32:03;7.83;;;2.33;;
13897;SDS011;7019;50.766;4.474;2023-01-30T12:34:36;9.97;;;2.60;;
13897;SDS011;7019;50.766;4.474;2023-01-30T12:37:06;13.63;;;3.90;;
13897;SDS011;7019;50.766;4.474;2023-01-30T12:39:50;12.33;;;3.00;;
13897;SDS011;7019;50.766;4.474;2023-01-30T12:42:33;14.53;;;2.70;;
13897;SDS011;7019;50.766;4.474;2023-01-30T12:45:18;9.13;;;2.67;;
13897;SDS011;7019;50.766;4.474;2023-01-30T12:47:53;11.03;;;2.93;;
13897;SDS011;7019;50.766;4.474;2023-01-30T12:50:37;12.77;;;2.43;;
13897;SDS011;7019;50.766;4.474;2023-01-30T12:53:24;12.60;;;2.60;;
13897;SDS011;7019;50.766;4.474;2023-01-30T12:56:01;9.77;;;2.30;;
13897;SDS011;7019;50.766;4.474;2023-01-30T12:58:49;11.23;;;2.60;;
13897;SDS011;7019;50.766;4.474;2023-01-30T13:01:22;13.27;;;3.07;;
13897;SDS011;7019;50.766;4.474;2023-01-30T13:03:55;12.70;;;2.40;;
13897;SDS011;7019;50.766;4.474;2023-01-30T13:06:33;13.33;;;2.40;;
13897;SDS011;7019;50.766;4.474;2023-01-30T13:09:32;13.77;;;3.17;;
13897;SDS011;7019;50.766;4.474;2023-01-30T13:12:10;14.10;;;2.30;;
13897;SDS011;7019;50.766;4.474;2023-01-30T13:14:44;9.40;;;2.80;;
13897;SDS011;7019;50.766;4.474;2023-01-30T13:17:23;15.70;;;2.73;;
13897;SDS011;7019;50.766;4.474;2023-01-30T13:20:02;12.07;;;2.80;;
13897;SDS011;7019;50.766;4.474;2023-01-30T13:22:42;9.13;;;2.00;;
13897;SDS011;7019;50.766;4.474;2023-01-30T13:25:17;15.13;;;3.10;;
13897;SDS011;7019;50.766;4.474;2023-01-30T13:27:51;12.13;;;2.17;;
13897;SDS011;7019;50.766;4.474;2023-01-30T13:30:20;14.63;;;2.50;;
13897;SDS011;7019;50.766;4.474;2023-01-30T13:32:52;13.07;;;2.63;;
13897;SDS011;7019;50.766;4.474;2023-01-30T13:35:23;11.67;;;2.53;;
13897;SDS011;7019;50.766;4.474;2023-01-30T13:37:58;11.97;;;3.50;;
13897;SDS011;7019;50.766;4.474;2023-01-30T13:40:29;19.17;;;3.10;;
13897;SDS011;7019;50.766;4.474;2023-01-30T13:43:03;12.73;;;2.77;;
13897;SDS011;7019;50.766;4.474;2023-01-30T13:45:39;9.87;;;2.83;;
13897;SDS011;7019;50.766;4.474;2023-01-30T13:48:15;10.90;;;2.87;;
13897;SDS011;7019;50.766;4.474;2023-01-30T13:50:57;10.27;;;2.63;;
13897;SDS011;7019;50.766;4.474;2023-01-30T13:53:41;12.33;;;2.93;;
13897;SDS011;7019;50.766;4.474;2023-01-30T13:56:14;17.93;;;4.53;;
13897;SDS011;7019;50.766;4.474;2023-01-30T13:58:48;11.77;;;2.47;;
13897;SDS011;7019;50.766;4.474;2023-01-30T14:01:20;9.57;;;1.83;;
13897;SDS011;7019;50.766;4.474;2023-01-30T14:03:48;19.20;;;3.30;;
13897;SDS011;7019;50.766;4.474;2023-01-30T14:06:29;13.60;;;2.67;;
13897;SDS011;7019;50.766;4.474;2023-01-30T14:09:15;13.17;;;3.00;;
13897;SDS011;7019;50.766;4.474;2023-01-30T14:11:48;10.10;;;2.03;;
13897;SDS011;7019;50.766;4.474;2023-01-30T14:14:27;11.60;;;2.63;;
13897;SDS011;7019;50.766;4.474;2023-01-30T14:16:57;14.33;;;2.80;;
13897;SDS011;7019;50.766;4.474;2023-01-30T14:19:36;13.67;;;4.20;;
13897;SDS011;7019;50.766;4.474;2023-01-30T14:22:22;15.03;;;2.93;;
13897;SDS011;7019;50.766;4.474;2023-01-30T14:37:13;12.83;;;2.53;;
13897;SDS011;7019;50.766;4.474;2023-01-30T14:46:05;15.57;;;2.23;;
13897;SDS011;7019;50.766;4.474;2023-01-30T14:48:39;11.63;;;2.50;;
13897;SDS011;7019;50.766;4.474;2023-01-30T14:51:09;10.90;;;2.90;;
13897;SDS011;7019;50.766;4.474;2023-01-30T14:53:48;12.10;;;2.70;;
13897;SDS011;7019;50.766;4.474;2023-01-30T14:56:20;11.63;;;3.17;;
13897;SDS011;7019;50.766;4.474;2023-01-30T14:59:04;20.17;;;2.80;;
13897;SDS011;7019;50.766;4.474;2023-01-30T15:04:32;10.40;;;2.60;;
13897;SDS011;7019;50.766;4.474;2023-01-30T15:07:07;18.93;;;2.90;;
13897;SDS011;7019;50.766;4.474;2023-01-30T15:09:38;16.70;;;3.17;;
13897;SDS011;7019;50.766;4.474;2023-01-30T15:12:17;17.70;;;2.77;;
13897;SDS011;7019;50.766;4.474;2023-01-30T15:15:01;11.37;;;2.43;;
13897;SDS011;7019;50.766;4.474;2023-01-30T15:17:40;9.30;;;2.57;;
13897;SDS011;7019;50.766;4.474;2023-01-30T15:20:23;10.67;;;2.30;;
13897;SDS011;7019;50.766;4.474;2023-01-30T15:23:08;11.67;;;2.60;;
13897;SDS011;7019;50.766;4.474;2023-01-30T15:25:57;14.80;;;2.40;;
13897;SDS011;7019;50.766;4.474;2023-01-30T15:28:48;19.13;;;4.10;;
13897;SDS011;7019;50.766;4.474;2023-01-30T15:31:24;14.30;;;3.00;;
13897;SDS011;7019;50.766;4.474;2023-01-30T15:33:52;10.37;;;3.10;;
13897;SDS011;7019;50.766;4.474;2023-01-30T15:36:25;16.23;;;3.10;;
13897;SDS011;7019;50.766;4.474;2023-01-30T15:38:54;13.63;;;2.63;;
13897;SDS011;7019;50.766;4.474;2023-01-30T15:41:23;11.73;;;2.80;;
13897;SDS011;7019;50.766;4.474;2023-01-30T15:47:02;13.77;;;3.10;;
13897;SDS011;7019;50.766;4.474;2023-01-30T15:49:45;14.20;;;2.83;;
13897;SDS011;7019;50.766;4.474;2023-01-30T15:52:20;16.53;;;3.00;;